Time;durP1;ratioP1;P1;durP2;ratioP2;P2;SDS_P1;SDS_P2;PMS_P1;PMS_P2;Temp;Humidity;BMP_temperature;BMP_pressure;BME280_temperature;BME280_humidity;BME280_pressure;Samples;Min_cycle;Max_cycle;Signal;HPM_P1;HPM_P2
2022/11/05 00:10:40;;;;;;;66.97;37.13;;;;;;;10.13;100.00;97136.18;1711541;83;20995;-79
2022/11/05 00:18:36;;;;;;;66.95;38.38;;;;;;;10.14;100.00;97157.53;1711685;82;21018;-79
2022/11/05 00:21:02;;;;;;;63.80;40.50;;;;;;;10.15;100.00;97146.95;1711535;83;21319;-79
2022/11/05 00:26:12;;;;;;;59.67;34.85;;;;;;;10.18;100.00;97140.97;1711850;83;20997;-82
2022/11/05 00:28:40;;;;;;;48.68;31.35;;;;;;;10.21;100.00;97134.70;1711683;82;21116;-79
2022/11/05 00:31:10;;;;;;;49.77;31.63;;;;;;;10.20;100.00;97134.45;1712394;83;21049;-83
2022/11/05 00:33:37;;;;;;;49.20;29.45;;;;;;;10.19;100.00;97130.94;1703451;83;21180;-82
2022/11/05 00:36:05;;;;;;;46.60;28.77;;;;;;;10.20;100.00;97133.89;1718342;83;21007;-79
2022/11/05 00:38:31;;;;;;;50.20;30.95;;;;;;;10.20;100.00;97137.95;1718397;83;20984;-79
2022/11/05 00:40:57;;;;;;;51.05;31.52;;;;;;;10.22;100.00;97145.25;1718392;83;20908;-82
2022/11/05 00:46:07;;;;;;;44.38;29.10;;;;;;;10.24;100.00;97140.89;1718315;83;21985;-79
2022/11/05 00:51:17;;;;;;;44.88;29.27;;;;;;;10.18;100.00;97154.50;1718367;83;21015;-82
2022/11/05 00:53:43;;;;;;;48.90;30.32;;;;;;;10.20;100.00;97161.52;1718511;83;20932;-79
2022/11/05 00:56:09;;;;;;;50.23;31.68;;;;;;;10.20;100.00;97165.03;1718479;83;20861;-79
2022/11/05 00:58:35;;;;;;;47.60;28.62;;;;;;;10.19;100.00;97164.78;1718288;83;21306;-79
2022/11/05 01:01:01;;;;;;;43.73;28.55;;;;;;;10.14;100.00;97160.80;1718366;83;21514;-81
2022/11/05 01:03:35;;;;;;;45.60;29.55;;;;;;;10.13;100.00;97163.25;1718452;83;20943;-82
2022/11/05 01:06:15;;;;;;;46.98;29.70;;;;;;;10.13;100.00;97172.73;1718296;83;20999;-80
2022/11/05 01:08:43;;;;;;;48.40;30.35;;;;;;;10.14;100.00;97180.55;1718403;83;21011;-79
2022/11/05 01:11:31;;;;;;;47.05;29.02;;;;;;;10.16;100.00;97183.75;1718630;83;21983;-82
2022/11/05 01:13:41;;;;;;;46.70;29.70;;;;;;;10.16;100.00;97183.75;1713935;83;21028;-83
2022/11/05 01:16:08;;;;;;;50.28;27.52;;;;;;;10.16;100.00;97178.34;1718418;83;20948;-82
2022/11/05 01:18:37;;;;;;;39.33;25.25;;;;;;;10.15;100.00;97174.03;1718415;83;21076;-82
2022/11/05 01:21:12;;;;;;;49.48;30.75;;;;;;;10.16;100.00;97178.34;1718300;83;21306;-79
2022/11/05 01:23:38;;;;;;;61.05;34.23;;;;;;;10.11;100.00;97189.27;1718441;83;21120;-79
2022/11/05 01:26:04;;;;;;;54.38;32.50;;;;;;;10.10;100.00;97193.08;1718404;82;20940;-83
2022/11/05 01:28:30;;;;;;;50.73;31.57;;;;;;;10.12;100.00;97202.25;1718335;83;21437;-82
2022/11/05 01:30:56;;;;;;;47.88;30.32;;;;;;;10.13;100.00;97198.45;1717408;83;20868;-79
2022/11/05 01:33:23;;;;;;;39.30;27.90;;;;;;;10.15;100.00;97197.59;1713460;82;20931;-82
2022/11/05 01:35:50;;;;;;;53.28;30.85;;;;;;;10.10;100.00;97187.67;1703037;83;21073;-83
2022/11/05 01:38:18;;;;;;;67.50;34.43;;;;;;;10.07;100.00;97184.18;1713428;82;21001;-79
2022/11/05 01:40:44;;;;;;;51.95;29.82;;;;;;;10.03;100.00;97187.79;1713032;83;21029;-82
2022/11/05 01:43:17;;;;;;;44.15;25.85;;;;;;;10.00;100.00;97187.84;1713239;83;20914;-82
2022/11/05 01:45:43;;;;;;;38.75;22.50;;;;;;;9.99;100.00;97185.41;1713274;83;21001;-79
2022/11/05 01:48:26;;;;;;;41.92;24.10;;;;;;;9.94;100.00;97190.92;1713252;83;21791;-83
2022/11/05 01:51:01;;;;;;;34.38;21.23;;;;;;;9.90;100.00;97195.55;1713013;82;21013;-79
2022/11/05 01:53:35;;;;;;;33.10;20.23;;;;;;;9.88;100.00;97190.19;1713149;82;21458;-82
2022/11/05 01:56:12;;;;;;;29.40;19.57;;;;;;;9.92;100.00;97193.92;1713231;83;21026;-79
2022/11/05 01:58:51;;;;;;;37.63;24.67;;;;;;;9.94;100.00;97195.78;1713022;82;21413;-79
2022/11/05 02:01:17;;;;;;;;;;;;;;;9.99;100.00;97196.23;1715926;82;21045;-82
2022/11/05 02:03:44;;;;;;;38.95;21.15;;;;;;;9.99;100.00;97203.00;1713100;83;20237;-82
2022/11/05 02:06:10;;;;;;;41.88;25.12;;;;;;;9.99;100.00;97209.22;1713256;83;21072;-82
2022/11/05 02:08:47;;;;;;;40.58;20.97;;;;;;;10.01;100.00;97206.23;1713355;83;20894;-79
2022/11/05 02:11:13;;;;;;;39.50;22.02;;;;;;;10.00;100.00;97202.73;1713278;82;21001;-82
2022/11/05 02:13:39;;;;;;;33.38;20.30;;;;;;;9.96;100.00;97213.88;1712926;82;21465;-80
2022/11/05 02:16:13;;;;;;;23.38;14.35;;;;;;;9.96;100.00;97213.08;1712884;82;20938;-82
2022/11/05 02:18:48;;;;;;;27.75;14.10;;;;;;;9.92;100.00;97210.72;1678572;85;21469;-82
2022/11/05 02:22:11;;;;;;;38.92;16.90;;;;;;;9.90;100.00;97213.14;1712882;83;21462;-82
2022/11/05 02:25:05;;;;;;;20.23;12.95;;;;;;;9.90;100.00;97213.14;1713359;82;21549;-79
2022/11/05 02:28:01;;;;;;;18.23;11.20;;;;;;;9.89;100.00;97212.09;1713065;83;21497;-82
2022/11/05 02:30:53;;;;;;;13.60;9.80;;;;;;;9.86;100.00;97213.48;1664763;83;21064;-82
2022/11/05 02:33:37;;;;;;;20.27;10.72;;;;;;;9.87;100.00;97219.70;1637708;85;21053;-79
2022/11/05 02:36:31;;;;;;;25.65;11.80;;;;;;;9.86;100.00;97218.90;1708508;83;21575;-79
2022/11/05 02:39:53;;;;;;;16.95;9.28;;;;;;;9.88;100.00;97228.07;1710525;82;21013;-82
2022/11/05 02:42:34;;;;;;;19.55;10.93;;;;;;;9.86;100.00;97228.37;1711498;82;21119;-82
2022/11/05 02:45:05;;;;;;;25.57;13.28;;;;;;;9.89;100.00;97241.85;1688295;83;21122;-81
2022/11/05 02:47:57;;;;;;;23.02;13.88;;;;;;;9.93;100.00;97251.56;1711793;82;21050;-79
2022/11/05 02:50:45;;;;;;;19.40;11.95;;;;;;;9.94;100.00;97260.73;1711719;83;21031;-82
2022/11/05 02:53:15;;;;;;;11.50;7.90;;;;;;;9.97;100.00;97267.45;1710822;82;21017;-79
2022/11/05 02:56:08;;;;;;;17.48;12.18;;;;;;;9.99;100.00;97273.37;1711814;83;21156;-82
2022/11/05 02:58:34;;;;;;;16.23;10.98;;;;;;;10.00;100.00;97280.39;1711289;82;21581;-79
2022/11/05 03:01:05;;;;;;;17.73;10.90;;;;;;;10.01;100.00;97294.20;1711519;83;21022;-79
2022/11/05 03:03:53;;;;;;;16.15;10.80;;;;;;;10.01;100.00;97293.65;1711389;82;21041;-82
2022/11/05 03:07:02;;;;;;;13.43;8.95;;;;;;;9.95;100.00;97296.16;1711529;83;21053;-81
2022/11/05 03:10:00;;;;;;;11.08;8.45;;;;;;;9.97;100.00;97296.67;1711444;83;21153;-79
2022/11/05 03:13:02;;;;;;;9.95;8.13;;;;;;;9.96;100.00;97295.06;1711659;82;21121;-83
2022/11/05 03:15:57;;;;;;;9.10;7.62;;;;;;;9.95;100.00;97296.72;1690716;83;21060;-82
2022/11/05 03:18:47;;;;;;;8.28;6.10;;;;;;;9.92;100.00;97298.66;1711618;82;20990;-82
2022/11/05 03:21:19;;;;;;;8.23;6.10;;;;;;;9.76;100.00;97303.48;1711529;83;21022;-82
2022/11/05 03:23:50;;;;;;;10.25;5.80;;;;;;;9.77;100.00;97315.91;1711728;82;21731;-79
2022/11/05 03:26:26;;;;;;;7.90;5.70;;;;;;;9.74;100.00;97317.83;1711427;83;21057;-83
2022/11/05 03:29:00;;;;;;;7.40;5.33;;;;;;;9.71;100.00;97317.06;1711534;82;21463;-80
2022/11/05 03:31:26;;;;;;;7.03;5.25;;;;;;;9.70;100.00;97324.92;1722550;82;21449;-79
2022/11/05 03:33:52;;;;;;;7.08;5.40;;;;;;;9.70;100.00;97337.09;1737097;81;21067;-79
2022/11/05 03:36:26;;;;;;;6.47;4.83;;;;;;;9.61;100.00;97338.30;1711596;83;21149;-79
2022/11/05 03:38:52;;;;;;;8.30;5.67;;;;;;;9.59;100.00;97330.47;1711450;82;21046;-82
2022/11/05 03:41:18;;;;;;;6.17;4.25;;;;;;;9.56;100.00;97335.09;1711540;83;21350;-79
2022/11/05 03:43:49;;;;;;;6.53;4.55;;;;;;;9.52;100.00;97331.36;1711629;82;21560;-79
2022/11/05 03:46:23;;;;;;;9.10;4.78;;;;;;;9.46;100.00;97335.22;1711743;83;21434;-83
2022/11/05 03:48:51;;;;;;;6.47;4.20;;;;;;;9.43;100.00;97345.82;1692182;83;21153;-79
2022/11/05 03:51:42;;;;;;;6.05;4.72;;;;;;;9.37;100.00;97342.91;1711587;83;21025;-79
2022/11/05 03:54:08;;;;;;;5.90;4.78;;;;;;;9.33;100.00;97350.25;1711648;82;21094;-83
2022/11/05 03:57:01;;;;;;;5.83;4.45;;;;;;;9.33;100.00;97358.36;1711519;83;20871;-79
2022/11/05 03:59:28;;;;;;;5.30;4.37;;;;;;;9.28;100.00;97358.41;1711742;82;21072;-78
2022/11/05 04:01:54;;;;;;;6.10;4.58;;;;;;;9.23;100.00;97367.94;1711804;83;21081;-79
2022/11/05 04:04:20;;;;;;;7.65;4.83;;;;;;;9.20;100.00;97356.33;1690847;83;21598;-83
2022/11/05 04:14:59;;;;;;;5.85;4.03;;;;;;;9.13;100.00;97353.70;1712003;83;21121;-83
2022/11/05 04:17:25;;;;;;;6.40;4.83;;;;;;;9.13;100.00;97349.10;1711704;82;21139;-82
2022/11/05 04:25:20;;;;;;;7.80;4.85;;;;;;;9.20;100.00;97364.44;1711989;83;21017;-79
2022/11/05 04:27:46;;;;;;;8.65;4.72;;;;;;;9.20;100.00;97369.84;1711605;82;21411;-82
2022/11/05 04:30:20;;;;;;;5.97;4.08;;;;;;;9.14;100.00;97373.68;1712032;83;20855;-82
2022/11/05 04:33:09;;;;;;;15.15;10.75;;;;;;;9.15;100.00;97374.52;1713108;83;21546;-79
2022/11/05 04:35:44;;;;;;;13.32;9.45;;;;;;;9.13;100.00;97375.33;1717595;82;21452;-79
2022/11/05 04:38:13;;;;;;;15.75;10.93;;;;;;;9.12;100.00;97377.77;1718529;83;21058;-79
2022/11/05 04:40:39;;;;;;;15.65;9.05;;;;;;;9.13;100.00;97376.67;1718541;83;21071;-82
2022/11/05 04:43:06;;;;;;;13.80;8.33;;;;;;;9.11;100.00;97379.67;1718379;83;20884;-79
2022/11/05 04:45:34;;;;;;;21.57;13.50;;;;;;;9.13;100.00;97380.73;1718589;83;21504;-79
2022/11/05 04:48:01;;;;;;;28.70;16.25;;;;;;;9.12;100.00;97385.88;1718452;83;21467;-82
2022/11/05 04:50:27;;;;;;;25.48;13.68;;;;;;;9.13;100.00;97388.30;1718731;83;21067;-82
2022/11/05 04:52:53;;;;;;;18.25;10.90;;;;;;;9.12;100.00;97396.69;1718527;83;21148;-79
2022/11/05 04:55:19;;;;;;;16.80;9.80;;;;;;;9.11;100.00;97395.08;1718432;83;20992;-82
2022/11/05 04:57:49;;;;;;;20.48;11.22;;;;;;;9.11;100.00;97398.59;1718351;83;20900;-79
2022/11/05 05:00:16;;;;;;;17.15;9.90;;;;;;;9.13;100.00;97397.75;1718660;83;21004;-79
2022/11/05 05:02:42;;;;;;;12.95;7.97;;;;;;;9.15;100.00;97400.20;1718430;83;21003;-82
2022/11/05 05:05:08;;;;;;;7.72;4.72;;;;;;;9.12;100.00;97403.45;1718672;83;21008;-79
2022/11/05 05:07:34;;;;;;;7.12;5.30;;;;;;;9.09;100.00;97404.83;1718400;83;21387;-79
2022/11/05 05:10:01;;;;;;;11.83;8.03;;;;;;;9.11;100.00;97408.59;1718393;83;21583;-79
2022/11/05 05:12:27;;;;;;;11.33;7.75;;;;;;;9.15;100.00;97408.30;1718379;83;21067;-82
2022/11/05 05:14:53;;;;;;;12.63;8.50;;;;;;;9.16;100.00;97418.02;1718760;83;20959;-82
2022/11/05 05:17:19;;;;;;;13.32;7.83;;;;;;;9.17;100.00;97418.28;1718484;83;21315;-82
2022/11/05 05:22:29;;;;;;;12.63;8.48;;;;;;;9.17;100.00;97427.19;1718425;83;21043;-82
2022/11/05 05:24:55;;;;;;;9.88;6.80;;;;;;;9.16;100.00;97432.34;1718641;83;20944;-82
2022/11/05 05:27:23;;;;;;;10.50;6.62;;;;;;;9.15;100.00;97433.98;1718469;82;21448;-82
2022/11/05 05:29:49;;;;;;;14.75;8.65;;;;;;;9.12;100.00;97434.53;1718589;83;21131;-82
2022/11/05 05:32:15;;;;;;;10.90;8.28;;;;;;;9.09;100.00;97445.38;1709249;83;20998;-82
2022/11/05 05:34:41;;;;;;;28.85;14.28;;;;;;;9.07;100.00;97450.27;1681269;83;20906;-82
2022/11/05 05:37:07;;;;;;;30.52;16.17;;;;;;;9.08;100.00;97452.42;1711836;82;20906;-79
2022/11/05 05:39:33;;;;;;;12.60;7.58;;;;;;;9.07;100.00;97458.38;1711924;83;20978;-79
2022/11/05 05:41:59;;;;;;;10.72;6.35;;;;;;;9.04;100.00;97457.56;1711796;83;21331;-79
2022/11/05 05:44:24;;;;;;;12.80;9.00;;;;;;;9.04;100.00;97462.42;1711650;82;20843;-80
2022/11/05 05:46:52;;;;;;;14.58;7.65;;;;;;;9.05;100.00;97462.69;1711866;83;20938;-82
2022/11/05 05:49:18;;;;;;;13.40;7.23;;;;;;;9.03;100.00;97464.06;1691392;83;21518;-82
2022/11/05 05:51:44;;;;;;;10.25;7.28;;;;;;;9.03;100.00;97470.27;1711781;83;20907;-81
2022/11/05 05:54:11;;;;;;;10.28;7.70;;;;;;;9.02;100.00;97478.67;1711545;82;21920;-82
2022/11/05 05:56:37;;;;;;;8.55;6.90;;;;;;;9.01;100.00;97482.47;1711674;83;21057;-80
2022/11/05 05:59:04;;;;;;;11.78;7.85;;;;;;;8.99;100.00;97490.05;1711657;82;20875;-79
2022/11/05 06:01:30;;;;;;;10.28;6.17;;;;;;;8.97;100.00;97494.91;1711798;83;21081;-82
2022/11/05 06:03:56;;;;;;;5.10;3.95;;;;;;;8.97;100.00;97499.80;1711636;82;20914;-79
2022/11/05 06:06:22;;;;;;;4.40;3.17;;;;;;;8.97;100.00;97505.72;1711903;83;21833;-82
2022/11/05 06:08:48;;;;;;;5.40;3.25;;;;;;;8.97;100.00;97512.47;1711778;82;20911;-79
2022/11/05 06:11:14;;;;;;;4.67;3.70;;;;;;;8.96;100.00;97506.27;1711865;83;20914;-79
2022/11/05 06:13:40;;;;;;;5.25;3.15;;;;;;;8.99;100.00;97515.73;1711646;82;20862;-79
2022/11/05 06:16:07;;;;;;;6.62;5.05;;;;;;;8.99;100.00;97509.78;1712007;83;20947;-82
2022/11/05 06:18:33;;;;;;;10.18;5.70;;;;;;;8.96;100.00;97516.27;1711409;82;21170;-79
2022/11/05 06:21:09;;;;;;;8.88;5.45;;;;;;;8.92;100.00;97522.80;1711735;83;21604;-83
2022/11/05 06:23:37;;;;;;;6.85;4.55;;;;;;;8.90;100.00;97529.03;1711611;82;21006;-82
2022/11/05 06:26:08;;;;;;;6.53;5.10;;;;;;;8.89;100.00;97531.47;1711750;83;21006;-79
2022/11/05 06:28:34;;;;;;;5.87;4.45;;;;;;;8.89;100.00;97530.13;1711621;82;21069;-82
2022/11/05 06:31:00;;;;;;;9.23;5.05;;;;;;;8.91;100.00;97537.94;1712336;83;21844;-83
2022/11/05 06:33:26;;;;;;;7.20;3.98;;;;;;;8.92;100.00;97539.55;1713122;82;20889;-79
2022/11/05 06:35:52;;;;;;;7.00;3.72;;;;;;;8.92;100.00;97543.06;1712237;82;20993;-79
2022/11/05 06:38:19;;;;;;;6.90;4.08;;;;;;;8.91;100.00;97547.39;1711553;82;21058;-82
2022/11/05 06:40:44;;;;;;;4.92;3.72;;;;;;;8.89;100.00;97547.69;1711745;83;20993;-82
2022/11/05 06:43:10;;;;;;;6.80;3.58;;;;;;;8.88;100.00;97554.14;1711777;82;22366;-82
2022/11/05 06:45:36;;;;;;;4.55;2.92;;;;;;;8.86;100.00;97560.92;1711828;83;20894;-79
2022/11/05 06:48:02;;;;;;;4.47;3.42;;;;;;;8.80;100.00;97565.54;1711503;82;21616;-79
2022/11/05 06:50:28;;;;;;;5.35;3.42;;;;;;;8.71;100.00;97573.42;1711894;83;21443;-78
2022/11/05 06:52:55;;;;;;;5.30;3.27;;;;;;;8.68;100.00;97574.53;1711685;82;20887;-82
2022/11/05 06:55:22;;;;;;;4.30;3.22;;;;;;;8.69;100.00;97584.25;1711791;83;21839;-79
2022/11/05 06:57:49;;;;;;;4.85;2.90;;;;;;;8.68;100.00;97579.39;1711569;82;21074;-82
2022/11/05 07:00:16;;;;;;;5.60;3.35;;;;;;;8.70;100.00;97585.86;1711886;83;20978;-79
2022/11/05 07:02:41;;;;;;;5.75;3.95;;;;;;;8.69;100.00;97593.70;1711465;82;21469;-82
2022/11/05 07:05:10;;;;;;;3.60;2.83;;;;;;;8.72;100.00;97596.67;1711887;83;20903;-82
2022/11/05 07:07:37;;;;;;;2.30;1.83;;;;;;;8.71;100.00;97599.63;1712036;82;21177;-82
2022/11/05 07:10:05;;;;;;;3.00;2.15;;;;;;;8.69;100.00;97600.45;1711696;83;21316;-78
2022/11/05 07:12:31;;;;;;;3.35;2.00;;;;;;;8.64;100.00;97600.50;1711878;82;20991;-79
2022/11/05 07:14:57;;;;;;;2.42;2.00;;;;;;;8.63;100.00;97607.80;1711983;83;21182;-79
2022/11/05 07:17:23;;;;;;;3.15;2.12;;;;;;;8.61;100.00;97615.34;1711636;82;21714;-82
2022/11/05 07:19:49;;;;;;;3.83;1.90;;;;;;;8.61;100.00;97615.89;1711877;83;21259;-82
2022/11/05 07:22:15;;;;;;;4.62;1.92;;;;;;;8.55;100.00;97615.12;1711738;82;20898;-82
2022/11/05 07:24:41;;;;;;;2.33;1.90;;;;;;;8.56;100.00;97614.58;1711713;83;20919;-82
2022/11/05 07:27:07;;;;;;;3.17;1.98;;;;;;;8.54;100.00;97622.92;1711624;82;21519;-82
2022/11/05 07:29:33;;;;;;;3.12;2.02;;;;;;;8.49;100.00;97622.96;1711931;83;20894;-82
2022/11/05 07:31:59;;;;;;;3.20;2.65;;;;;;;8.50;100.00;97627.82;1712754;83;21342;-79
2022/11/05 07:34:25;;;;;;;4.33;3.12;;;;;;;8.51;100.00;97632.94;1712764;83;20954;-80
2022/11/05 07:36:51;;;;;;;2.77;2.40;;;;;;;8.50;100.00;97630.52;1711772;83;20974;-82
2022/11/05 07:39:17;;;;;;;16.35;14.18;;;;;;;8.50;100.00;97636.73;1711457;82;20906;-79
2022/11/05 07:41:43;;;;;;;14.45;10.65;;;;;;;8.51;100.00;97632.13;1711730;83;20986;-79
2022/11/05 07:44:08;;;;;;;5.37;4.87;;;;;;;8.50;100.00;97634.03;1711634;82;21540;-82
2022/11/05 07:46:34;;;;;;;4.22;3.10;;;;;;;8.54;100.00;97634.27;1711810;83;20986;-82
2022/11/05 07:49:00;;;;;;;4.85;2.77;;;;;;;8.47;100.00;97640.80;1711351;82;20870;-78
2022/11/05 07:51:26;;;;;;;3.75;2.45;;;;;;;8.47;100.00;97639.98;1711825;83;21022;-83
2022/11/05 07:53:52;;;;;;;4.95;2.98;;;;;;;8.41;100.00;97640.53;1701227;83;21683;-79
2022/11/05 07:56:18;;;;;;;2.58;2.10;;;;;;;8.41;100.00;97646.48;1693785;83;21253;-83
2022/11/05 07:58:44;;;;;;;3.35;2.70;;;;;;;8.44;100.00;97649.97;1692734;83;20859;-79
2022/11/05 08:01:10;;;;;;;8.45;5.72;;;;;;;8.47;100.00;97651.59;1713237;82;21389;-79
2022/11/05 08:03:36;;;;;;;4.20;2.70;;;;;;;8.52;100.00;97655.35;1713026;82;20870;-79
2022/11/05 08:06:01;;;;;;;11.38;7.42;;;;;;;8.54;100.00;97653.17;1703095;82;21040;-79
2022/11/05 08:08:27;;;;;;;4.97;3.67;;;;;;;8.55;100.00;97658.33;1695481;82;21140;-78
2022/11/05 08:10:53;;;;;;;7.85;4.47;;;;;;;8.56;100.00;97661.83;1713285;83;20942;-82
2022/11/05 08:13:19;;;;;;;4.03;3.00;;;;;;;8.56;100.00;97664.53;1711841;82;20960;-78
2022/11/05 08:15:45;;;;;;;4.50;3.12;;;;;;;8.56;100.00;97667.23;1709850;83;20874;-82
2022/11/05 08:18:16;;;;;;;10.35;9.25;;;;;;;8.55;100.00;97669.13;1713191;82;21008;-79
2022/11/05 08:20:42;;;;;;;7.15;6.03;;;;;;;8.56;100.00;97673.45;1694496;83;21485;-79
2022/11/05 08:23:08;;;;;;;38.90;34.92;;;;;;;8.54;100.00;97672.08;1685350;83;20974;-78
2022/11/05 08:25:34;;;;;;;16.40;14.73;;;;;;;8.53;100.00;97671.81;1713383;82;20957;-83
2022/11/05 08:28:06;;;;;;;17.35;15.38;;;;;;;8.52;100.00;97681.00;1713074;83;20878;-83
2022/11/05 08:30:32;;;;;;;12.40;11.10;;;;;;;8.50;100.00;97680.48;1704320;82;21006;-79
2022/11/05 08:33:05;;;;;;;11.08;9.43;;;;;;;8.48;100.00;97686.16;1712904;82;21742;-83
2022/11/05 08:35:31;;;;;;;7.72;5.47;;;;;;;8.47;100.00;97689.94;1705216;83;21069;-83
2022/11/05 08:38:01;;;;;;;7.12;6.30;;;;;;;8.43;100.00;97699.66;1711586;82;22479;-78
2022/11/05 08:40:29;;;;;;;6.28;4.53;;;;;;;8.41;100.00;97695.89;1705065;84;21025;-83
2022/11/05 08:42:59;;;;;;;8.90;5.95;;;;;;;8.42;100.00;97692.64;1709895;83;20981;-83
2022/11/05 08:45:26;;;;;;;8.08;6.65;;;;;;;8.44;100.00;97698.57;1712818;82;21229;-82
2022/11/05 08:48:07;;;;;;;7.50;5.08;;;;;;;8.46;100.00;97689.14;1713261;82;21513;-78
2022/11/05 08:50:33;;;;;;;12.82;5.40;;;;;;;8.54;100.00;97689.63;1711442;82;21557;-78
2022/11/05 08:52:59;;;;;;;10.00;6.70;;;;;;;8.59;100.00;97690.98;1694619;83;21004;-78
2022/11/05 08:55:25;;;;;;;13.98;8.08;;;;;;;8.58;100.00;97696.12;1702831;82;20903;-82
2022/11/05 08:57:56;;;;;;;11.18;8.20;;;;;;;8.57;100.00;97702.06;1685946;83;21168;-81
2022/11/05 09:00:22;;;;;;;11.10;7.50;;;;;;;8.56;100.00;97704.50;1692180;82;20985;-82
2022/11/05 09:02:48;;;;;;;13.08;8.28;;;;;;;8.56;100.00;97704.50;1713187;82;21045;-82
2022/11/05 09:05:14;;;;;;;12.82;7.25;;;;;;;8.56;100.00;97711.80;1713422;83;20855;-78
2022/11/05 09:07:39;;;;;;;15.72;6.92;;;;;;;8.53;100.00;97705.03;1711429;83;20977;-82
2022/11/05 09:10:06;;;;;;;29.52;20.80;;;;;;;8.50;100.00;97708.83;1702974;83;21870;-78
2022/11/05 09:12:32;;;;;;;35.68;25.90;;;;;;;8.51;100.00;97710.44;1711709;82;21120;-82
2022/11/05 09:14:58;;;;;;;8.65;5.90;;;;;;;8.43;100.00;97710.45;1713100;83;20944;-78
2022/11/05 09:17:24;;;;;;;11.22;5.47;;;;;;;8.43;100.00;97718.02;1713314;82;20893;-83
2022/11/05 09:19:49;;;;;;;7.92;5.42;;;;;;;8.42;100.00;97716.41;1713245;82;21024;-78
2022/11/05 09:22:15;;;;;;;8.58;5.55;;;;;;;8.44;100.00;97719.63;1707130;83;21131;-82
2022/11/05 09:24:42;;;;;;;8.08;4.78;;;;;;;8.46;100.00;97714.79;1690337;82;20944;-78
2022/11/05 09:27:15;;;;;;;8.38;3.90;;;;;;;8.46;100.00;97720.19;1678924;84;21015;-82
2022/11/05 09:29:41;;;;;;;8.05;4.22;;;;;;;8.44;100.00;97718.82;1681857;84;21016;-83
2022/11/05 09:32:07;;;;;;;10.82;7.12;;;;;;;8.43;100.00;97714.51;1719407;82;21450;-82
2022/11/05 09:34:33;;;;;;;30.30;17.70;;;;;;;8.44;100.00;97719.63;1687077;83;21277;-83
2022/11/05 09:36:59;;;;;;;25.30;13.32;;;;;;;8.44;100.00;97718.82;1707339;83;21013;-78
2022/11/05 09:39:25;;;;;;;13.75;7.37;;;;;;;8.43;100.00;97719.37;1705367;83;20953;-79
2022/11/05 09:41:52;;;;;;;9.83;5.20;;;;;;;8.46;100.00;97722.08;1713595;83;20949;-82
2022/11/05 09:44:21;;;;;;;8.43;4.78;;;;;;;8.45;100.00;97723.95;1709456;83;21463;-79
2022/11/05 09:46:54;;;;;;;6.53;4.00;;;;;;;8.50;100.00;97730.44;1711941;83;21786;-82
2022/11/05 09:49:41;;;;;;;6.62;5.08;;;;;;;8.48;100.00;97722.61;1691760;82;21561;-82
2022/11/05 09:52:14;;;;;;;10.88;6.25;;;;;;;8.50;100.00;97728.55;1703340;83;21060;-78
2022/11/05 09:54:40;;;;;;;15.85;10.55;;;;;;;8.50;100.00;97733.94;1713531;82;21052;-83
2022/11/05 09:57:09;;;;;;;9.75;5.17;;;;;;;8.51;100.00;97731.50;1699171;83;20957;-82
2022/11/05 09:59:46;;;;;;;6.15;4.75;;;;;;;8.52;100.00;97736.36;1708204;82;21137;-83
2022/11/05 10:02:22;;;;;;;6.72;4.58;;;;;;;8.58;100.00;97738.79;1701253;83;21311;-82
2022/11/05 10:04:52;;;;;;;9.25;5.78;;;;;;;8.62;100.00;97741.20;1686483;82;21587;-82
2022/11/05 10:07:22;;;;;;;30.37;16.35;;;;;;;8.63;100.00;97737.95;1685857;83;21044;-83
2022/11/05 10:09:52;;;;;;;25.52;16.80;;;;;;;8.66;100.00;97741.48;1700568;83;21033;-78
2022/11/05 10:12:27;;;;;;;19.40;11.50;;;;;;;8.66;100.00;97741.48;1707852;83;22073;-82
2022/11/05 10:15:22;;;;;;;12.98;7.60;;;;;;;8.66;100.00;97741.48;1703275;82;21080;-78
2022/11/05 10:17:52;;;;;;;7.03;5.40;;;;;;;8.73;100.00;97748.76;1702941;82;21006;-78
2022/11/05 10:20:23;;;;;;;7.25;4.50;;;;;;;8.74;100.00;97751.72;1708319;82;21033;-78
2022/11/05 10:22:59;;;;;;;8.15;5.10;;;;;;;8.71;100.00;97754.41;1704168;82;21526;-78
2022/11/05 10:25:29;;;;;;;9.35;5.90;;;;;;;8.68;100.00;97756.86;1731461;82;21159;-78
2022/11/05 10:27:55;;;;;;;9.95;6.47;;;;;;;8.69;100.00;97762.53;1723749;82;21065;-78
2022/11/05 10:30:21;;;;;;;8.13;6.20;;;;;;;8.67;100.00;97757.41;1713201;82;20961;-78
2022/11/05 10:32:47;;;;;;;7.75;5.40;;;;;;;8.72;100.00;97762.00;1712093;82;20909;-78
2022/11/05 10:35:17;;;;;;;7.25;5.20;;;;;;;8.73;100.00;97764.42;1711543;82;20916;-78
2022/11/05 10:37:50;;;;;;;6.00;4.50;;;;;;;8.78;100.00;97772.23;1708569;84;21304;-78
2022/11/05 10:40:42;;;;;;;8.18;5.35;;;;;;;8.81;100.00;97771.16;1689843;83;21518;-78
2022/11/05 10:43:33;;;;;;;9.48;4.87;;;;;;;8.84;100.00;97769.80;1690126;83;21055;-83
2022/11/05 10:46:23;;;;;;;7.92;5.35;;;;;;;8.82;100.00;97773.32;1709992;83;21573;-83
2022/11/05 10:49:27;;;;;;;8.55;5.20;;;;;;;8.80;100.00;97775.47;1712079;82;21069;-83
2022/11/05 10:51:56;;;;;;;6.50;4.50;;;;;;;8.81;100.00;97779.27;1713284;83;21274;-82
2022/11/05 10:54:23;;;;;;;;;;;;;;;8.80;100.00;97787.08;1708135;82;21004;-83
2022/11/05 10:56:49;;;;;;;5.72;4.05;;;;;;;8.80;100.00;97782.22;1712832;82;20168;-78
2022/11/05 10:59:22;;;;;;;6.15;4.22;;;;;;;8.82;100.00;97782.78;1712946;82;20965;-83
2022/11/05 11:02:02;;;;;;;6.80;3.98;;;;;;;8.86;100.00;97789.23;1702784;83;21009;-78
2022/11/05 11:04:29;;;;;;;6.92;4.12;;;;;;;8.84;100.00;97780.06;1708016;82;21164;-82
2022/11/05 11:06:57;;;;;;;5.78;4.28;;;;;;;8.84;100.00;97778.71;1705074;84;21509;-83
2022/11/05 11:09:31;;;;;;;11.40;6.27;;;;;;;8.87;100.00;97784.09;1692801;82;21574;-78
2022/11/05 11:12:09;;;;;;;13.62;8.38;;;;;;;8.90;100.00;97790.33;1705144;83;21009;-78
2022/11/05 11:14:34;;;;;;;9.55;6.28;;;;;;;8.93;100.00;97782.47;1712752;83;21002;-83
2022/11/05 11:17:26;;;;;;;10.60;5.92;;;;;;;8.95;100.00;97783.53;1713549;82;21639;-78
2022/11/05 11:20:04;;;;;;;10.72;7.40;;;;;;;8.99;100.00;97793.54;1713056;82;20983;-79
2022/11/05 11:22:29;;;;;;;9.98;7.30;;;;;;;9.00;100.00;97787.59;1677160;83;21100;-82
2022/11/05 11:24:55;;;;;;;11.95;8.55;;;;;;;8.97;100.00;97787.61;1712893;82;20886;-82
2022/11/05 11:27:26;;;;;;;13.18;9.93;;;;;;;8.96;100.00;97787.86;1713467;82;21626;-78
2022/11/05 11:30:00;;;;;;;12.85;9.38;;;;;;;8.97;100.00;97794.88;1695120;82;21324;-78
2022/11/05 11:32:33;;;;;;;12.10;9.50;;;;;;;8.95;100.00;97799.75;1733983;81;21143;-78
2022/11/05 11:35:00;;;;;;;15.10;10.43;;;;;;;8.94;100.00;97796.78;1682257;84;21035;-83
2022/11/05 11:37:29;;;;;;;14.13;9.85;;;;;;;8.98;100.00;97795.17;1678824;85;21112;-83
2022/11/05 11:40:06;;;;;;;11.95;8.03;;;;;;;8.97;100.00;97793.52;1703497;83;21032;-78
2022/11/05 11:42:34;;;;;;;13.65;8.33;;;;;;;8.92;100.00;97798.42;1713305;82;21700;-82
2022/11/05 11:45:08;;;;;;;10.03;7.17;;;;;;;8.93;100.00;97800.03;1709021;82;21025;-78
2022/11/05 11:47:34;;;;;;;10.03;6.60;;;;;;;8.91;100.00;97793.30;1710743;82;20986;-83
2022/11/05 11:50:01;;;;;;;12.45;7.58;;;;;;;8.94;100.00;97804.89;1712841;83;20937;-82
2022/11/05 11:52:30;;;;;;;11.48;7.40;;;;;;;8.95;100.00;97802.45;1713188;82;21069;-84
2022/11/05 11:55:18;;;;;;;12.43;9.60;;;;;;;8.99;100.00;97800.84;1702911;83;21336;-82
2022/11/05 11:57:50;;;;;;;12.20;8.25;;;;;;;9.00;100.00;97805.97;1702998;83;29106;-82
2022/11/05 12:00:17;;;;;;;12.55;8.80;;;;;;;8.97;100.00;97810.58;1704749;83;21017;-82
2022/11/05 12:03:06;;;;;;;17.62;8.93;;;;;;;8.96;100.00;97807.58;1704927;82;20997;-82
2022/11/05 12:05:40;;;;;;;48.90;34.38;;;;;;;8.98;100.00;97812.20;1705364;84;21064;-79
2022/11/05 12:08:33;;;;;;;22.58;16.00;;;;;;;8.98;100.00;97812.20;1687588;82;21044;-82
2022/11/05 12:11:16;;;;;;;22.85;13.93;;;;;;;8.98;100.00;97815.44;1704923;84;21442;-78
2022/11/05 12:14:19;;;;;;;18.00;11.05;;;;;;;8.98;100.00;97812.73;1704916;82;21568;-78
2022/11/05 12:17:13;;;;;;;56.53;44.83;;;;;;;8.99;100.00;97816.52;1705214;84;21008;-83
2022/11/05 12:20:09;;;;;;;30.27;24.07;;;;;;;9.03;100.00;97815.41;1704593;84;21064;-78
2022/11/05 12:22:46;;;;;;;21.37;13.53;;;;;;;9.00;100.00;97817.31;1704425;82;22008;-78
2022/11/05 12:25:28;;;;;;;11.12;9.35;;;;;;;8.97;100.00;97817.33;1703682;84;21017;-82